Airfield :
LOGIN :

Register | Disclaimer

   EN    FR    IT 

 










Legend :    VFR   Marginal VFR   IFR   Intensive IFR   Very Intensive IFR
Visi :
Ceiling :
>= 8 km
>= 3000ft
5 to 8 km
1000 to 3000 ft
1500m to 5 km
500 to 1000 ft
800 to 1500m
200 to 500 ft
< 800m
< 200 ft
Symbols :   Thunderstorms  Fog  Heavy snow  Heavy precipitations  Wind > 20 kt
SIGMETs :     Misc.  Thunderstorms  Icing  Turbulence  Mountain Waves  Volcanic Ashes






- Airport Elevation : 171 ft
- IATA code : EGC


LFBE - Bergerac

CURRENT METAR :
  • 060630Z AUTO 10004KT 080V140 9999 BKN048 OVC060 12/02 Q1020

EXPIRED METARs :
  • 060600Z AUTO 09003KT 9999 -RA ///TCU 11/03 Q1019
  • 060530Z AUTO 10003KT 9999 ///TCU 11/02 Q1019
  • 060500Z AUTO VRB02KT 9999 ///TCU 10/02 Q1018
  • 060430Z AUTO 09002KT CAVOK 11/02 Q1018
  • 060400Z AUTO 11002KT CAVOK 11/03 Q1018

Expired Forecast.



MET'MAP, your aeronautical weather chart ! - Copyright ORBIFLY December 2007 - Disclaimer

ORBIFLY MET'MAP TEAM :

Programming & Development : Alexandra Zaïnal
Concept & original design : Baudouin d'Aumeries
Assistance for programming : Marc-Olivier Méhu
Technical & hardware support : Manuel Goepfert

Contact : metmap@orbifly.com




SOURCES & CREDITS :

   NOAA